sensor_id;sensor_type;location;lat;lon;timestamp;temperature;humidity
82506;SHT30;72144;51.444;10.560;2024-01-27T00:01:20;5.32;81.35
82506;SHT30;72144;51.444;10.560;2024-01-27T00:03:45;5.30;81.56
82506;SHT30;72144;51.444;10.560;2024-01-27T00:06:11;5.27;81.68
82506;SHT30;72144;51.444;10.560;2024-01-27T00:08:36;5.27;81.63
82506;SHT30;72144;51.444;10.560;2024-01-27T00:11:01;5.29;81.43
82506;SHT30;72144;51.444;10.560;2024-01-27T00:13:27;5.27;81.44
82506;SHT30;72144;51.444;10.560;2024-01-27T00:15:52;5.29;81.49
82506;SHT30;72144;51.444;10.560;2024-01-27T00:18:20;5.27;81.74
82506;SHT30;72144;51.444;10.560;2024-01-27T00:20:45;5.26;81.65
82506;SHT30;72144;51.444;10.560;2024-01-27T00:23:11;5.20;81.56
82506;SHT30;72144;51.444;10.560;2024-01-27T00:25:36;5.26;81.67
82506;SHT30;72144;51.444;10.560;2024-01-27T00:28:01;5.26;81.76
82506;SHT30;72144;51.444;10.560;2024-01-27T00:30:27;5.25;81.59
82506;SHT30;72144;51.444;10.560;2024-01-27T00:32:52;5.26;81.44
82506;SHT30;72144;51.444;10.560;2024-01-27T00:35:17;5.23;81.55
82506;SHT30;72144;51.444;10.560;2024-01-27T00:37:43;5.19;81.77
82506;SHT30;72144;51.444;10.560;2024-01-27T00:40:09;5.23;81.96
82506;SHT30;72144;51.444;10.560;2024-01-27T00:42:35;5.23;82.00
82506;SHT30;72144;51.444;10.560;2024-01-27T00:45:00;5.22;81.87
82506;SHT30;72144;51.444;10.560;2024-01-27T00:47:26;5.20;81.79
82506;SHT30;72144;51.444;10.560;2024-01-27T00:49:51;5.20;81.76
82506;SHT30;72144;51.444;10.560;2024-01-27T00:52:17;5.19;81.70
82506;SHT30;72144;51.444;10.560;2024-01-27T00:54:42;5.20;81.76
82506;SHT30;72144;51.444;10.560;2024-01-27T00:57:07;5.19;81.86
82506;SHT30;72144;51.444;10.560;2024-01-27T00:59:32;5.18;81.85
82506;SHT30;72144;51.444;10.560;2024-01-27T01:01:58;5.18;81.97
82506;SHT30;72144;51.444;10.560;2024-01-27T01:04:23;5.16;81.99
82506;SHT30;72144;51.444;10.560;2024-01-27T01:06:48;5.18;81.96
82506;SHT30;72144;51.444;10.560;2024-01-27T01:09:14;5.16;82.04
82506;SHT30;72144;51.444;10.560;2024-01-27T01:11:39;5.15;82.05
82506;SHT30;72144;51.444;10.560;2024-01-27T01:14:04;5.15;82.11
82506;SHT30;72144;51.444;10.560;2024-01-27T01:16:30;5.13;82.13
82506;SHT30;72144;51.444;10.560;2024-01-27T01:18:55;5.12;82.13
82506;SHT30;72144;51.444;10.560;2024-01-27T01:21:21;5.11;82.24
82506;SHT30;72144;51.444;10.560;2024-01-27T01:23:46;5.12;82.29
82506;SHT30;72144;51.444;10.560;2024-01-27T01:26:12;5.11;82.31
82506;SHT30;72144;51.444;10.560;2024-01-27T01:28:37;5.12;82.18
82506;SHT30;72144;51.444;10.560;2024-01-27T01:31:02;5.09;82.29
82506;SHT30;72144;51.444;10.560;2024-01-27T01:33:28;5.11;82.24
82506;SHT30;72144;51.444;10.560;2024-01-27T01:35:53;5.11;82.27
82506;SHT30;72144;51.444;10.560;2024-01-27T01:38:18;5.08;82.32
82506;SHT30;72144;51.444;10.560;2024-01-27T01:40:44;5.08;82.43
82506;SHT30;72144;51.444;10.560;2024-01-27T01:43:10;5.08;82.40
82506;SHT30;72144;51.444;10.560;2024-01-27T01:45:37;5.08;82.34
82506;SHT30;72144;51.444;10.560;2024-01-27T01:48:02;5.08;82.21
82506;SHT30;72144;51.444;10.560;2024-01-27T01:50:28;5.04;82.21
82506;SHT30;72144;51.444;10.560;2024-01-27T01:52:53;5.07;82.24
82506;SHT30;72144;51.444;10.560;2024-01-27T01:55:19;5.02;82.15
82506;SHT30;72144;51.444;10.560;2024-01-27T01:57:45;5.05;82.12
82506;SHT30;72144;51.444;10.560;2024-01-27T02:00:11;5.02;82.12
82506;SHT30;72144;51.444;10.560;2024-01-27T02:02:37;4.99;82.14
82506;SHT30;72144;51.444;10.560;2024-01-27T02:05:02;5.02;82.09
82506;SHT30;72144;51.444;10.560;2024-01-27T02:07:28;4.98;82.01
82506;SHT30;72144;51.444;10.560;2024-01-27T02:09:53;4.99;82.10
82506;SHT30;72144;51.444;10.560;2024-01-27T02:12:18;4.96;82.10
82506;SHT30;72144;51.444;10.560;2024-01-27T02:14:44;4.96;82.24
82506;SHT30;72144;51.444;10.560;2024-01-27T02:17:09;4.96;82.28
82506;SHT30;72144;51.444;10.560;2024-01-27T02:19:35;4.96;82.32
82506;SHT30;72144;51.444;10.560;2024-01-27T02:22:00;4.95;82.40
82506;SHT30;72144;51.444;10.560;2024-01-27T02:24:25;4.94;82.41
82506;SHT30;72144;51.444;10.560;2024-01-27T02:26:52;4.95;82.34
82506;SHT30;72144;51.444;10.560;2024-01-27T02:29:17;4.94;82.37
82506;SHT30;72144;51.444;10.560;2024-01-27T02:31:44;4.94;82.44
82506;SHT30;72144;51.444;10.560;2024-01-27T02:34:10;4.94;82.42
82506;SHT30;72144;51.444;10.560;2024-01-27T02:36:35;4.91;82.49
82506;SHT30;72144;51.444;10.560;2024-01-27T02:39:00;4.91;82.29
82506;SHT30;72144;51.444;10.560;2024-01-27T02:41:26;4.92;82.34
82506;SHT30;72144;51.444;10.560;2024-01-27T02:43:52;4.89;82.40
82506;SHT30;72144;51.444;10.560;2024-01-27T02:46:17;4.88;82.47
82506;SHT30;72144;51.444;10.560;2024-01-27T02:48:44;4.88;82.40
82506;SHT30;72144;51.444;10.560;2024-01-27T02:51:09;4.87;82.63
82506;SHT30;72144;51.444;10.560;2024-01-27T02:53:35;4.85;82.53
82506;SHT30;72144;51.444;10.560;2024-01-27T02:56:00;4.85;82.46
82506;SHT30;72144;51.444;10.560;2024-01-27T02:58:26;4.84;82.33
82506;SHT30;72144;51.444;10.560;2024-01-27T03:00:51;4.84;82.42
82506;SHT30;72144;51.444;10.560;2024-01-27T03:03:16;4.83;82.55
82506;SHT30;72144;51.444;10.560;2024-01-27T03:05:42;4.87;82.45
82506;SHT30;72144;51.444;10.560;2024-01-27T03:08:07;4.83;82.46
82506;SHT30;72144;51.444;10.560;2024-01-27T03:10:33;4.83;82.46
82506;SHT30;72144;51.444;10.560;2024-01-27T03:12:58;4.81;82.41
82506;SHT30;72144;51.444;10.560;2024-01-27T03:15:24;4.80;82.55
82506;SHT30;72144;51.444;10.560;2024-01-27T03:17:49;4.81;82.66
82506;SHT30;72144;51.444;10.560;2024-01-27T03:20:14;4.81;82.42
82506;SHT30;72144;51.444;10.560;2024-01-27T03:22:40;4.83;82.47
82506;SHT30;72144;51.444;10.560;2024-01-27T03:25:07;4.80;82.41
82506;SHT30;72144;51.444;10.560;2024-01-27T03:27:33;4.77;82.40
82506;SHT30;72144;51.444;10.560;2024-01-27T03:30:01;4.78;82.31
82506;SHT30;72144;51.444;10.560;2024-01-27T03:32:27;4.77;82.45
82506;SHT30;72144;51.444;10.560;2024-01-27T03:34:53;4.80;82.39
82506;SHT30;72144;51.444;10.560;2024-01-27T03:37:18;4.77;82.51
82506;SHT30;72144;51.444;10.560;2024-01-27T03:39:43;4.80;82.62
82506;SHT30;72144;51.444;10.560;2024-01-27T03:42:09;4.77;82.55
82506;SHT30;72144;51.444;10.560;2024-01-27T03:44:34;4.75;82.55
82506;SHT30;72144;51.444;10.560;2024-01-27T03:47:00;4.75;82.57
82506;SHT30;72144;51.444;10.560;2024-01-27T03:49:25;4.75;82.56
82506;SHT30;72144;51.444;10.560;2024-01-27T03:51:50;4.75;82.53
82506;SHT30;72144;51.444;10.560;2024-01-27T03:54:15;4.74;82.64
82506;SHT30;72144;51.444;10.560;2024-01-27T03:56:41;4.77;82.61
82506;SHT30;72144;51.444;10.560;2024-01-27T03:59:07;4.74;82.78
82506;SHT30;72144;51.444;10.560;2024-01-27T04:01:35;4.75;82.80
82506;SHT30;72144;51.444;10.560;2024-01-27T04:04:00;4.77;82.73
82506;SHT30;72144;51.444;10.560;2024-01-27T04:06:26;4.74;82.78
82506;SHT30;72144;51.444;10.560;2024-01-27T04:08:51;4.75;82.68
82506;SHT30;72144;51.444;10.560;2024-01-27T04:11:22;4.73;82.72
82506;SHT30;72144;51.444;10.560;2024-01-27T04:13:48;4.75;82.74
82506;SHT30;72144;51.444;10.560;2024-01-27T04:16:15;4.74;82.77
82506;SHT30;72144;51.444;10.560;2024-01-27T04:18:41;4.77;82.77
82506;SHT30;72144;51.444;10.560;2024-01-27T04:21:07;4.74;82.70
82506;SHT30;72144;51.444;10.560;2024-01-27T04:23:32;4.77;82.82
82506;SHT30;72144;51.444;10.560;2024-01-27T04:25:59;4.74;82.80
82506;SHT30;72144;51.444;10.560;2024-01-27T04:28:24;4.74;82.81
82506;SHT30;72144;51.444;10.560;2024-01-27T04:30:49;4.75;82.83
82506;SHT30;72144;51.444;10.560;2024-01-27T04:33:15;4.73;82.78
82506;SHT30;72144;51.444;10.560;2024-01-27T04:35:40;4.75;82.72
82506;SHT30;72144;51.444;10.560;2024-01-27T04:38:08;4.74;82.84
82506;SHT30;72144;51.444;10.560;2024-01-27T04:40:33;4.71;82.93
82506;SHT30;72144;51.444;10.560;2024-01-27T04:43:00;4.73;82.93
82506;SHT30;72144;51.444;10.560;2024-01-27T04:45:26;4.71;82.70
82506;SHT30;72144;51.444;10.560;2024-01-27T04:47:52;4.70;82.64
82506;SHT30;72144;51.444;10.560;2024-01-27T04:50:18;4.71;82.69
82506;SHT30;72144;51.444;10.560;2024-01-27T04:52:44;4.73;82.67
82506;SHT30;72144;51.444;10.560;2024-01-27T04:55:09;4.71;82.80
82506;SHT30;72144;51.444;10.560;2024-01-27T04:57:35;4.71;82.76
82506;SHT30;72144;51.444;10.560;2024-01-27T05:00:00;4.73;82.73
82506;SHT30;72144;51.444;10.560;2024-01-27T05:02:26;4.70;82.73
82506;SHT30;72144;51.444;10.560;2024-01-27T05:04:51;4.70;82.73
82506;SHT30;72144;51.444;10.560;2024-01-27T05:07:17;4.68;82.78
82506;SHT30;72144;51.444;10.560;2024-01-27T05:09:43;4.68;82.85
82506;SHT30;72144;51.444;10.560;2024-01-27T05:12:08;4.68;82.79
82506;SHT30;72144;51.444;10.560;2024-01-27T05:14:34;4.66;82.71
82506;SHT30;72144;51.444;10.560;2024-01-27T05:16:59;4.67;82.72
82506;SHT30;72144;51.444;10.560;2024-01-27T05:19:25;4.66;82.53
82506;SHT30;72144;51.444;10.560;2024-01-27T05:21:50;4.67;82.61
82506;SHT30;72144;51.444;10.560;2024-01-27T05:24:15;4.63;82.82
82506;SHT30;72144;51.444;10.560;2024-01-27T05:26:41;4.60;82.71
82506;SHT30;72144;51.444;10.560;2024-01-27T05:29:06;4.61;82.65
82506;SHT30;72144;51.444;10.560;2024-01-27T05:31:32;4.58;82.73
82506;SHT30;72144;51.444;10.560;2024-01-27T05:33:57;4.60;82.73
82506;SHT30;72144;51.444;10.560;2024-01-27T05:36:22;4.57;82.75
82506;SHT30;72144;51.444;10.560;2024-01-27T05:38:48;4.56;82.79
82506;SHT30;72144;51.444;10.560;2024-01-27T05:41:13;4.57;82.86
82506;SHT30;72144;51.444;10.560;2024-01-27T05:43:39;4.54;82.74
82506;SHT30;72144;51.444;10.560;2024-01-27T05:46:04;4.53;82.76
82506;SHT30;72144;51.444;10.560;2024-01-27T05:48:30;4.50;82.79
82506;SHT30;72144;51.444;10.560;2024-01-27T05:50:56;4.49;82.78
82506;SHT30;72144;51.444;10.560;2024-01-27T05:53:22;4.49;82.76
82506;SHT30;72144;51.444;10.560;2024-01-27T05:55:48;4.47;82.66
82506;SHT30;72144;51.444;10.560;2024-01-27T05:58:13;4.46;82.66
82506;SHT30;72144;51.444;10.560;2024-01-27T06:00:39;4.46;82.69
82506;SHT30;72144;51.444;10.560;2024-01-27T06:03:04;4.43;82.73
82506;SHT30;72144;51.444;10.560;2024-01-27T06:05:29;4.45;82.79
82506;SHT30;72144;51.444;10.560;2024-01-27T06:07:55;4.43;82.84
82506;SHT30;72144;51.444;10.560;2024-01-27T06:10:20;4.39;82.83
82506;SHT30;72144;51.444;10.560;2024-01-27T06:12:46;4.39;82.89
82506;SHT30;72144;51.444;10.560;2024-01-27T06:15:12;4.40;82.90
82506;SHT30;72144;51.444;10.560;2024-01-27T06:17:37;4.36;82.86
82506;SHT30;72144;51.444;10.560;2024-01-27T06:20:02;4.35;82.86
82506;SHT30;72144;51.444;10.560;2024-01-27T06:22:29;4.33;82.80
82506;SHT30;72144;51.444;10.560;2024-01-27T06:24:56;4.33;82.86
82506;SHT30;72144;51.444;10.560;2024-01-27T06:27:21;4.30;82.80
82506;SHT30;72144;51.444;10.560;2024-01-27T06:29:47;4.29;82.96
82506;SHT30;72144;51.444;10.560;2024-01-27T06:32:12;4.26;83.05
82506;SHT30;72144;51.444;10.560;2024-01-27T06:34:39;4.26;82.96
82506;SHT30;72144;51.444;10.560;2024-01-27T06:37:05;4.23;82.98
82506;SHT30;72144;51.444;10.560;2024-01-27T06:39:30;4.22;83.08
82506;SHT30;72144;51.444;10.560;2024-01-27T06:41:55;4.22;83.05
82506;SHT30;72144;51.444;10.560;2024-01-27T06:44:21;4.22;83.05
82506;SHT30;72144;51.444;10.560;2024-01-27T06:46:46;4.21;82.92
82506;SHT30;72144;51.444;10.560;2024-01-27T06:49:15;4.18;82.96
82506;SHT30;72144;51.444;10.560;2024-01-27T06:51:40;4.15;83.00
82506;SHT30;72144;51.444;10.560;2024-01-27T06:54:06;4.15;83.13
82506;SHT30;72144;51.444;10.560;2024-01-27T06:56:31;4.13;83.15
82506;SHT30;72144;51.444;10.560;2024-01-27T06:58:57;4.11;83.13
82506;SHT30;72144;51.444;10.560;2024-01-27T07:01:22;4.09;83.09
82506;SHT30;72144;51.444;10.560;2024-01-27T07:03:48;4.09;83.13
82506;SHT30;72144;51.444;10.560;2024-01-27T07:06:15;4.05;83.06
82506;SHT30;72144;51.444;10.560;2024-01-27T07:08:40;4.06;83.02
82506;SHT30;72144;51.444;10.560;2024-01-27T07:11:05;4.04;83.14
82506;SHT30;72144;51.444;10.560;2024-01-27T07:13:31;4.04;83.22
82506;SHT30;72144;51.444;10.560;2024-01-27T07:15:57;4.04;83.18
82506;SHT30;72144;51.444;10.560;2024-01-27T07:18:24;4.02;83.28
82506;SHT30;72144;51.444;10.560;2024-01-27T07:20:49;4.02;83.22
82506;SHT30;72144;51.444;10.560;2024-01-27T07:23:15;3.99;83.27
82506;SHT30;72144;51.444;10.560;2024-01-27T07:25:41;3.99;83.25
82506;SHT30;72144;51.444;10.560;2024-01-27T07:28:06;3.97;83.15
82506;SHT30;72144;51.444;10.560;2024-01-27T07:30:31;3.95;83.16
82506;SHT30;72144;51.444;10.560;2024-01-27T07:32:57;3.95;83.19
82506;SHT30;72144;51.444;10.560;2024-01-27T07:35:22;3.93;83.29
82506;SHT30;72144;51.444;10.560;2024-01-27T07:37:48;3.93;83.24
82506;SHT30;72144;51.444;10.560;2024-01-27T07:40:13;3.93;83.27
82506;SHT30;72144;51.444;10.560;2024-01-27T07:42:39;3.91;83.27
82506;SHT30;72144;51.444;10.560;2024-01-27T07:45:04;3.90;83.29
82506;SHT30;72144;51.444;10.560;2024-01-27T07:47:30;3.88;83.16
82506;SHT30;72144;51.444;10.560;2024-01-27T07:49:55;3.90;83.17
82506;SHT30;72144;51.444;10.560;2024-01-27T07:52:20;3.87;83.15
82506;SHT30;72144;51.444;10.560;2024-01-27T07:54:46;3.87;83.17
82506;SHT30;72144;51.444;10.560;2024-01-27T07:57:11;3.85;83.14
82506;SHT30;72144;51.444;10.560;2024-01-27T07:59:37;3.87;83.30
82506;SHT30;72144;51.444;10.560;2024-01-27T08:02:03;3.84;83.23
82506;SHT30;72144;51.444;10.560;2024-01-27T08:04:28;3.84;83.30
82506;SHT30;72144;51.444;10.560;2024-01-27T08:06:54;3.81;83.29
82506;SHT30;72144;51.444;10.560;2024-01-27T08:09:19;3.81;83.27
82506;SHT30;72144;51.444;10.560;2024-01-27T08:11:45;3.84;83.29
82506;SHT30;72144;51.444;10.560;2024-01-27T08:14:11;3.81;83.31
82506;SHT30;72144;51.444;10.560;2024-01-27T08:16:36;3.83;83.39
82506;SHT30;72144;51.444;10.560;2024-01-27T08:19:01;3.81;83.37
82506;SHT30;72144;51.444;10.560;2024-01-27T08:21:27;3.80;83.36
82506;SHT30;72144;51.444;10.560;2024-01-27T08:23:53;3.80;83.48
82506;SHT30;72144;51.444;10.560;2024-01-27T08:26:18;3.81;83.44
82506;SHT30;72144;51.444;10.560;2024-01-27T08:28:49;3.83;83.59
82506;SHT30;72144;51.444;10.560;2024-01-27T08:31:14;3.83;83.65
82506;SHT30;72144;51.444;10.560;2024-01-27T08:33:40;3.83;83.62
82506;SHT30;72144;51.444;10.560;2024-01-27T08:36:05;3.80;83.65
82506;SHT30;72144;51.444;10.560;2024-01-27T08:38:30;3.81;83.74
82506;SHT30;72144;51.444;10.560;2024-01-27T08:40:56;3.84;83.77
82506;SHT30;72144;51.444;10.560;2024-01-27T08:43:22;3.84;83.81
82506;SHT30;72144;51.444;10.560;2024-01-27T08:45:47;3.83;83.89
82506;SHT30;72144;51.444;10.560;2024-01-27T08:48:12;3.85;83.91
82506;SHT30;72144;51.444;10.560;2024-01-27T08:50:38;3.87;83.89
82506;SHT30;72144;51.444;10.560;2024-01-27T08:53:04;3.84;83.97
82506;SHT30;72144;51.444;10.560;2024-01-27T08:55:30;3.85;83.95
82506;SHT30;72144;51.444;10.560;2024-01-27T08:57:56;3.85;84.04
82506;SHT30;72144;51.444;10.560;2024-01-27T09:00:21;3.88;84.14
82506;SHT30;72144;51.444;10.560;2024-01-27T09:02:47;3.90;84.15
82506;SHT30;72144;51.444;10.560;2024-01-27T09:05:13;3.93;84.32
82506;SHT30;72144;51.444;10.560;2024-01-27T09:07:38;3.93;84.42
82506;SHT30;72144;51.444;10.560;2024-01-27T09:10:04;3.94;84.52
82506;SHT30;72144;51.444;10.560;2024-01-27T09:12:29;3.97;84.59
82506;SHT30;72144;51.444;10.560;2024-01-27T09:14:54;3.98;84.60
82506;SHT30;72144;51.444;10.560;2024-01-27T09:17:20;4.01;84.66
82506;SHT30;72144;51.444;10.560;2024-01-27T09:19:46;4.02;84.75
82506;SHT30;72144;51.444;10.560;2024-01-27T09:22:11;4.04;84.84
82506;SHT30;72144;51.444;10.560;2024-01-27T09:24:37;4.04;84.87
82506;SHT30;72144;51.444;10.560;2024-01-27T09:27:02;4.08;84.80
82506;SHT30;72144;51.444;10.560;2024-01-27T09:29:29;4.11;84.95
82506;SHT30;72144;51.444;10.560;2024-01-27T09:31:54;4.16;85.00
82506;SHT30;72144;51.444;10.560;2024-01-27T09:34:20;4.15;85.10
82506;SHT30;72144;51.444;10.560;2024-01-27T09:36:45;4.16;85.21
82506;SHT30;72144;51.444;10.560;2024-01-27T09:39:10;4.22;85.20
82506;SHT30;72144;51.444;10.560;2024-01-27T09:41:36;4.22;85.12
82506;SHT30;72144;51.444;10.560;2024-01-27T09:44:03;4.22;85.05
82506;SHT30;72144;51.444;10.560;2024-01-27T09:46:29;4.28;85.14
82506;SHT30;72144;51.444;10.560;2024-01-27T09:48:56;4.30;84.97
82506;SHT30;72144;51.444;10.560;2024-01-27T09:51:21;4.33;84.90
82506;SHT30;72144;51.444;10.560;2024-01-27T09:53:47;4.36;84.84
82506;SHT30;72144;51.444;10.560;2024-01-27T09:56:12;4.38;84.89
82506;SHT30;72144;51.444;10.560;2024-01-27T09:58:43;4.40;84.79
82506;SHT30;72144;51.444;10.560;2024-01-27T10:01:10;4.47;84.69
82506;SHT30;72144;51.444;10.560;2024-01-27T10:03:38;4.49;84.57
82506;SHT30;72144;51.444;10.560;2024-01-27T10:06:08;4.54;84.52
82506;SHT30;72144;51.444;10.560;2024-01-27T10:08:33;4.57;84.50
82506;SHT30;72144;51.444;10.560;2024-01-27T10:10:59;4.61;84.40
82506;SHT30;72144;51.444;10.560;2024-01-27T10:13:24;4.63;84.30
82506;SHT30;72144;51.444;10.560;2024-01-27T10:16:06;4.70;84.19
82506;SHT30;72144;51.444;10.560;2024-01-27T10:18:32;4.75;84.23
82506;SHT30;72144;51.444;10.560;2024-01-27T10:20:58;4.78;84.24
82506;SHT30;72144;51.444;10.560;2024-01-27T10:23:24;4.80;84.11
82506;SHT30;72144;51.444;10.560;2024-01-27T10:25:50;4.85;84.06
82506;SHT30;72144;51.444;10.560;2024-01-27T10:28:16;4.91;84.01
82506;SHT30;72144;51.444;10.560;2024-01-27T10:30:42;4.94;84.02
82506;SHT30;72144;51.444;10.560;2024-01-27T10:33:09;4.98;83.89
82506;SHT30;72144;51.444;10.560;2024-01-27T10:35:35;5.04;83.84
82506;SHT30;72144;51.444;10.560;2024-01-27T10:38:01;5.07;83.78
82506;SHT30;72144;51.444;10.560;2024-01-27T10:40:26;5.16;83.84
82506;SHT30;72144;51.444;10.560;2024-01-27T10:45:50;5.20;83.69
82506;SHT30;72144;51.444;10.560;2024-01-27T10:48:15;5.26;83.58
82506;SHT30;72144;51.444;10.560;2024-01-27T10:50:41;5.30;83.54
82506;SHT30;72144;51.444;10.560;2024-01-27T10:53:12;5.37;83.48
82506;SHT30;72144;51.444;10.560;2024-01-27T10:55:41;5.37;83.51
82506;SHT30;72144;51.444;10.560;2024-01-27T10:58:07;5.44;83.53
82506;SHT30;72144;51.444;10.560;2024-01-27T11:00:34;5.47;83.42
82506;SHT30;72144;51.444;10.560;2024-01-27T11:03:02;5.54;83.36
82506;SHT30;72144;51.444;10.560;2024-01-27T11:05:28;5.55;83.36
82506;SHT30;72144;51.444;10.560;2024-01-27T11:07:58;5.60;83.24
82506;SHT30;72144;51.444;10.560;2024-01-27T11:10:24;5.65;83.29
82506;SHT30;72144;51.444;10.560;2024-01-27T11:12:51;5.71;83.23
82506;SHT30;72144;51.444;10.560;2024-01-27T11:15:17;5.74;83.27
82506;SHT30;72144;51.444;10.560;2024-01-27T11:17:43;5.78;83.24
82506;SHT30;72144;51.444;10.560;2024-01-27T11:20:10;5.85;83.20
82506;SHT30;72144;51.444;10.560;2024-01-27T11:22:40;5.87;83.09
82506;SHT30;72144;51.444;10.560;2024-01-27T11:25:18;5.95;82.89
82506;SHT30;72144;51.444;10.560;2024-01-27T11:27:45;5.98;82.94
82506;SHT30;72144;51.444;10.560;2024-01-27T11:30:31;6.01;82.67
82506;SHT30;72144;51.444;10.560;2024-01-27T11:33:01;6.08;82.85
82506;SHT30;72144;51.444;10.560;2024-01-27T11:35:26;6.09;82.80
82506;SHT30;72144;51.444;10.560;2024-01-27T11:37:52;6.13;82.74
82506;SHT30;72144;51.444;10.560;2024-01-27T11:40:18;6.16;82.68
82506;SHT30;72144;51.444;10.560;2024-01-27T11:42:44;6.23;82.68
82506;SHT30;72144;51.444;10.560;2024-01-27T11:45:18;6.27;82.73
82506;SHT30;72144;51.444;10.560;2024-01-27T11:47:43;6.30;82.65
82506;SHT30;72144;51.444;10.560;2024-01-27T11:50:09;6.36;82.59
82506;SHT30;72144;51.444;10.560;2024-01-27T11:52:34;6.38;82.56
82506;SHT30;72144;51.444;10.560;2024-01-27T11:55:01;6.43;82.56
82506;SHT30;72144;51.444;10.560;2024-01-27T11:57:27;6.48;82.61
82506;SHT30;72144;51.444;10.560;2024-01-27T11:59:53;6.53;82.52
82506;SHT30;72144;51.444;10.560;2024-01-27T12:02:19;6.57;82.46
82506;SHT30;72144;51.444;10.560;2024-01-27T12:04:47;6.63;82.46
82506;SHT30;72144;51.444;10.560;2024-01-27T12:07:14;6.67;82.40
82506;SHT30;72144;51.444;10.560;2024-01-27T12:09:39;6.70;82.27
82506;SHT30;72144;51.444;10.560;2024-01-27T12:12:05;6.75;82.23
82506;SHT30;72144;51.444;10.560;2024-01-27T12:14:38;6.78;81.99
82506;SHT30;72144;51.444;10.560;2024-01-27T12:17:04;6.84;82.09
82506;SHT30;72144;51.444;10.560;2024-01-27T12:19:30;6.87;82.04
82506;SHT30;72144;51.444;10.560;2024-01-27T12:21:55;6.91;81.99
82506;SHT30;72144;51.444;10.560;2024-01-27T12:24:21;6.95;82.02
82506;SHT30;72144;51.444;10.560;2024-01-27T12:26:46;6.98;81.99
82506;SHT30;72144;51.444;10.560;2024-01-27T12:29:12;7.05;82.01
82506;SHT30;72144;51.444;10.560;2024-01-27T12:31:37;7.06;82.08
82506;SHT30;72144;51.444;10.560;2024-01-27T12:34:03;7.09;82.09
82506;SHT30;72144;51.444;10.560;2024-01-27T12:36:28;7.13;81.99
82506;SHT30;72144;51.444;10.560;2024-01-27T12:41:20;7.22;81.97
82506;SHT30;72144;51.444;10.560;2024-01-27T12:43:45;7.26;81.94
82506;SHT30;72144;51.444;10.560;2024-01-27T12:46:11;7.33;81.95
82506;SHT30;72144;51.444;10.560;2024-01-27T12:48:37;7.37;81.88
82506;SHT30;72144;51.444;10.560;2024-01-27T12:51:04;7.41;81.91
82506;SHT30;72144;51.444;10.560;2024-01-27T12:53:30;7.44;81.95
82506;SHT30;72144;51.444;10.560;2024-01-27T12:55:55;7.47;82.02
82506;SHT30;72144;51.444;10.560;2024-01-27T12:58:21;7.52;81.95
82506;SHT30;72144;51.444;10.560;2024-01-27T13:00:46;7.54;81.97
82506;SHT30;72144;51.444;10.560;2024-01-27T13:03:12;7.61;82.03
82506;SHT30;72144;51.444;10.560;2024-01-27T13:05:37;7.62;81.97
82506;SHT30;72144;51.444;10.560;2024-01-27T13:08:04;7.68;81.91
82506;SHT30;72144;51.444;10.560;2024-01-27T13:10:30;7.69;81.84
82506;SHT30;72144;51.444;10.560;2024-01-27T13:12:55;7.74;81.97
82506;SHT30;72144;51.444;10.560;2024-01-27T13:15:21;7.78;81.96
82506;SHT30;72144;51.444;10.560;2024-01-27T13:17:48;7.82;81.96
82506;SHT30;72144;51.444;10.560;2024-01-27T13:20:14;7.83;81.87
82506;SHT30;72144;51.444;10.560;2024-01-27T13:22:39;7.86;81.91
82506;SHT30;72144;51.444;10.560;2024-01-27T13:25:05;7.90;81.98
82506;SHT30;72144;51.444;10.560;2024-01-27T13:27:31;7.92;81.87
82506;SHT30;72144;51.444;10.560;2024-01-27T13:29:56;7.95;81.92
82506;SHT30;72144;51.444;10.560;2024-01-27T13:32:22;7.97;81.92
82506;SHT30;72144;51.444;10.560;2024-01-27T13:34:47;7.97;81.88
82506;SHT30;72144;51.444;10.560;2024-01-27T13:37:13;8.04;81.83
82506;SHT30;72144;51.444;10.560;2024-01-27T13:39:41;8.04;81.85
82506;SHT30;72144;51.444;10.560;2024-01-27T13:42:06;8.09;81.79
82506;SHT30;72144;51.444;10.560;2024-01-27T13:44:32;8.09;81.78
82506;SHT30;72144;51.444;10.560;2024-01-27T13:47:04;8.12;81.82
82506;SHT30;72144;51.444;10.560;2024-01-27T13:49:33;8.16;81.84
82506;SHT30;72144;51.444;10.560;2024-01-27T13:51:59;8.19;81.80
82506;SHT30;72144;51.444;10.560;2024-01-27T13:54:24;8.20;81.78
82506;SHT30;72144;51.444;10.560;2024-01-27T13:56:50;8.21;81.78
82506;SHT30;72144;51.444;10.560;2024-01-27T13:59:16;8.23;81.76
82506;SHT30;72144;51.444;10.560;2024-01-27T14:01:41;8.26;81.71
82506;SHT30;72144;51.444;10.560;2024-01-27T14:04:06;8.29;81.70
82506;SHT30;72144;51.444;10.560;2024-01-27T14:06:33;8.27;81.64
82506;SHT30;72144;51.444;10.560;2024-01-27T14:08:59;8.27;81.63
82506;SHT30;72144;51.444;10.560;2024-01-27T14:11:24;8.27;81.52
82506;SHT30;72144;51.444;10.560;2024-01-27T14:13:50;8.24;81.42
82506;SHT30;72144;51.444;10.560;2024-01-27T14:16:16;8.24;81.36
82506;SHT30;72144;51.444;10.560;2024-01-27T14:18:41;8.20;81.36
82506;SHT30;72144;51.444;10.560;2024-01-27T14:21:07;8.20;81.26
82506;SHT30;72144;51.444;10.560;2024-01-27T14:23:33;8.19;81.33
82506;SHT30;72144;51.444;10.560;2024-01-27T14:25:58;8.17;81.31
82506;SHT30;72144;51.444;10.560;2024-01-27T14:28:24;8.13;81.32
82506;SHT30;72144;51.444;10.560;2024-01-27T14:30:49;8.10;81.32
82506;SHT30;72144;51.444;10.560;2024-01-27T14:33:14;8.09;81.29
82506;SHT30;72144;51.444;10.560;2024-01-27T14:35:46;8.04;81.28
82506;SHT30;72144;51.444;10.560;2024-01-27T14:38:11;8.02;81.31
82506;SHT30;72144;51.444;10.560;2024-01-27T14:40:38;8.02;81.35
82506;SHT30;72144;51.444;10.560;2024-01-27T14:43:04;8.00;81.33
82506;SHT30;72144;51.444;10.560;2024-01-27T14:45:34;7.97;81.26
82506;SHT30;72144;51.444;10.560;2024-01-27T14:48:00;7.95;81.24
82506;SHT30;72144;51.444;10.560;2024-01-27T14:50:26;7.90;81.21
82506;SHT30;72144;51.444;10.560;2024-01-27T14:52:52;7.89;81.00
82506;SHT30;72144;51.444;10.560;2024-01-27T14:55:17;7.87;80.98
82506;SHT30;72144;51.444;10.560;2024-01-27T14:57:43;7.82;80.66
82506;SHT30;72144;51.444;10.560;2024-01-27T15:00:08;7.81;79.97
82506;SHT30;72144;51.444;10.560;2024-01-27T15:02:34;7.74;79.72
82506;SHT30;72144;51.444;10.560;2024-01-27T15:05:00;7.69;79.76
82506;SHT30;72144;51.444;10.560;2024-01-27T15:07:26;7.67;79.81
82506;SHT30;72144;51.444;10.560;2024-01-27T15:09:55;7.62;79.74
82506;SHT30;72144;51.444;10.560;2024-01-27T15:12:22;7.58;79.59
82506;SHT30;72144;51.444;10.560;2024-01-27T15:14:49;7.55;79.58
82506;SHT30;72144;51.444;10.560;2024-01-27T15:17:14;7.52;79.78
82506;SHT30;72144;51.444;10.560;2024-01-27T15:19:40;7.50;79.55
82506;SHT30;72144;51.444;10.560;2024-01-27T15:22:05;7.43;79.60
82506;SHT30;72144;51.444;10.560;2024-01-27T15:24:30;7.38;79.54
82506;SHT30;72144;51.444;10.560;2024-01-27T15:26:58;7.37;79.53